Time;durP1;ratioP1;P1;durP2;ratioP2;P2;SDS_P1;SDS_P2;PMS_P1;PMS_P2;Temp;Humidity;BMP_temperature;BMP_pressure;BME280_temperature;BME280_humidity;BME280_pressure;Samples;Min_cycle;Max_cycle;Signal;HPM_P1;HPM_P2
2023/04/06 00:01:42;;;;;;;4.93;1.40;;;19.30;99.90;;;;;;4993749;28;20191;-76
2023/04/06 00:04:13;;;;;;;4.57;1.33;;;19.30;99.90;;;;;;4989901;28;20239;-76
2023/04/06 00:06:44;;;;;;;4.78;1.23;;;19.30;99.90;;;;;;4985712;28;20216;-75
2023/04/06 00:09:17;;;;;;;2.97;1.20;;;19.30;99.90;;;;;;4989946;28;20206;-75
2023/04/06 00:11:48;;;;;;;3.15;1.15;;;19.30;99.90;;;;;;4980208;28;20195;-76
2023/04/06 00:14:20;;;;;;;3.75;1.20;;;19.30;99.90;;;;;;4976764;28;20204;-75
2023/04/06 00:16:51;;;;;;;2.35;0.98;;;19.30;99.90;;;;;;4981402;28;20200;-75
2023/04/06 00:19:22;;;;;;;1.48;1.00;;;19.30;99.90;;;;;;4976807;28;20666;-75
2023/04/06 00:21:54;;;;;;;1.77;0.95;;;19.30;99.90;;;;;;4994310;28;20660;-75
2023/04/06 00:24:27;;;;;;;4.00;1.10;;;19.30;99.90;;;;;;4992019;28;20192;-75
2023/04/06 00:26:58;;;;;;;2.08;0.68;;;19.30;99.90;;;;;;4988762;28;20227;-76
2023/04/06 00:29:29;;;;;;;1.20;0.80;;;19.30;99.90;;;;;;4994610;28;20199;-75
2023/04/06 00:32:00;;;;;;;1.13;0.68;;;19.30;99.90;;;;;;4995150;28;20207;-75
2023/04/06 00:34:30;;;;;;;3.35;1.00;;;19.30;99.90;;;;;;4981641;28;20208;-75
2023/04/06 00:37:01;;;;;;;2.95;1.00;;;19.20;99.90;;;;;;4985895;28;20215;-75
2023/04/06 00:39:33;;;;;;;7.50;2.78;;;19.20;99.90;;;;;;4985872;28;20202;-75
2023/04/06 00:42:10;;;;;;;4.60;1.77;;;19.20;99.90;;;;;;4989882;28;20199;-75
2023/04/06 00:44:40;;;;;;;7.55;2.35;;;19.30;99.90;;;;;;4993867;28;20199;-75
2023/04/06 00:47:11;;;;;;;5.32;1.48;;;19.30;99.90;;;;;;4976080;28;20688;-75
2023/04/06 00:49:42;;;;;;;3.42;1.33;;;19.30;99.90;;;;;;4976094;28;20692;-75
2023/04/06 00:52:13;;;;;;;1.95;1.40;;;19.30;99.90;;;;;;4983728;28;20203;-75
2023/04/06 00:54:45;;;;;;;8.82;1.92;;;19.40;99.90;;;;;;4991757;28;20184;-76
2023/04/06 00:57:17;;;;;;;1.77;1.00;;;19.40;99.90;;;;;;4976017;28;20222;-75
2023/04/06 00:59:48;;;;;;;6.35;2.50;;;19.40;99.90;;;;;;4976439;28;20188;-75
2023/04/06 01:02:19;;;;;;;2.28;0.70;;;19.50;99.90;;;;;;4975824;28;20240;-76
2023/04/06 01:04:49;;;;;;;1.70;0.82;;;19.50;99.90;;;;;;4975812;28;20204;-76
2023/04/06 01:07:20;;;;;;;5.22;1.50;;;19.60;99.90;;;;;;4975583;28;20232;-76
2023/04/06 01:09:52;;;;;;;3.95;1.08;;;19.60;99.90;;;;;;4975805;28;20204;-76
2023/04/06 01:12:23;;;;;;;2.67;1.00;;;19.60;99.90;;;;;;4984390;28;20584;-76
2023/04/06 01:14:54;;;;;;;5.30;1.02;;;19.70;99.90;;;;;;4995073;28;20203;-76
2023/04/06 01:17:24;;;;;;;1.90;0.90;;;19.70;99.90;;;;;;4994948;28;20647;-76
2023/04/06 01:19:55;;;;;;;3.58;1.20;;;19.80;99.90;;;;;;4994938;28;20191;-76
2023/04/06 01:22:28;;;;;;;9.98;3.35;;;19.80;99.90;;;;;;4994790;28;20196;-76
2023/04/06 01:24:59;;;;;;;3.20;1.50;;;19.90;99.90;;;;;;4994907;28;20643;-76
2023/04/06 01:27:29;;;;;;;3.28;1.40;;;19.90;99.90;;;;;;4994801;28;20270;-76
2023/04/06 01:30:00;;;;;;;2.22;1.17;;;20.00;99.90;;;;;;4991944;28;20206;-76
2023/04/06 01:32:31;;;;;;;4.00;1.40;;;20.00;99.90;;;;;;4994803;28;20202;-76
2023/04/06 01:35:01;;;;;;;2.30;1.10;;;20.00;99.90;;;;;;4994539;28;20192;-76
2023/04/06 01:37:34;;;;;;;2.47;1.25;;;20.00;99.90;;;;;;4994668;28;20199;-76
2023/04/06 01:40:05;;;;;;;3.90;0.90;;;20.00;99.90;;;;;;4994645;28;20663;-76
2023/04/06 01:42:35;;;;;;;2.50;0.88;;;20.00;99.90;;;;;;4994466;28;20203;-76
2023/04/06 01:45:06;;;;;;;1.15;0.60;;;20.00;99.90;;;;;;4994664;28;20199;-76
2023/04/06 01:47:37;;;;;;;0.57;0.50;;;20.00;99.90;;;;;;4994406;28;20218;-76
2023/04/06 01:50:08;;;;;;;0.65;0.65;;;20.00;99.90;;;;;;4994500;28;20207;-76
2023/04/06 01:52:41;;;;;;;2.13;0.60;;;20.00;99.90;;;;;;4994459;28;20601;-76
2023/04/06 01:55:11;;;;;;;2.65;0.70;;;20.10;99.90;;;;;;4988606;28;20200;-76
2023/04/06 01:57:42;;;;;;;2.88;0.80;;;20.10;99.90;;;;;;4983575;28;20200;-76
2023/04/06 02:00:14;;;;;;;2.85;0.80;;;20.10;99.90;;;;;;4994395;28;20195;-76
2023/04/06 02:02:44;;;;;;;2.83;0.52;;;20.20;99.90;;;;;;4994027;28;20314;-76
2023/04/06 02:05:15;;;;;;;2.53;0.70;;;20.20;99.90;;;;;;4994161;28;20199;-76
2023/04/06 02:07:48;;;;;;;3.75;0.70;;;20.30;99.90;;;;;;4994141;28;20223;-76
2023/04/06 02:10:20;;;;;;;1.20;0.55;;;20.40;99.90;;;;;;4994287;28;20187;-76
2023/04/06 02:12:51;;;;;;;1.48;0.77;;;20.40;99.90;;;;;;4994212;28;20195;-77
2023/04/06 02:15:23;;;;;;;1.30;0.60;;;20.50;99.90;;;;;;4991494;28;20196;-77
2023/04/06 02:17:54;;;;;;;1.88;0.70;;;20.60;99.90;;;;;;4994033;28;20214;-77
2023/04/06 02:20:25;;;;;;;1.92;0.70;;;20.70;99.90;;;;;;4993942;28;20198;-78
2023/04/06 02:22:59;;;;;;;3.10;1.00;;;20.70;99.90;;;;;;4994277;28;20204;-77
2023/04/06 02:25:30;;;;;;;2.20;1.10;;;20.90;99.90;;;;;;4994044;28;20659;-77
2023/04/06 02:28:02;;;;;;;3.33;1.20;;;21.00;99.90;;;;;;4993866;28;20234;-82
2023/04/06 02:30:33;;;;;;;3.45;1.33;;;21.00;99.90;;;;;;4993961;28;20198;-80
2023/04/06 02:33:05;;;;;;;3.78;1.50;;;21.10;99.90;;;;;;4993776;28;20192;-78
2023/04/06 02:35:36;;;;;;;2.70;1.33;;;21.20;99.90;;;;;;4994021;28;20213;-80
2023/04/06 02:38:09;;;;;;;2.78;1.30;;;21.20;99.90;;;;;;4993973;28;20191;-77
2023/04/06 02:40:40;;;;;;;2.88;1.20;;;21.40;99.90;;;;;;4993827;28;20191;-79
2023/04/06 02:43:11;;;;;;;1.70;1.10;;;21.50;99.90;;;;;;4991291;28;20292;-80
2023/04/06 02:45:42;;;;;;;2.60;1.20;;;21.50;99.90;;;;;;4993765;28;20558;-80
2023/04/06 02:48:13;;;;;;;2.38;1.10;;;21.60;99.90;;;;;;4993357;28;20243;-80
2023/04/06 02:50:44;;;;;;;3.70;1.20;;;21.70;99.90;;;;;;4993745;28;20570;-79
2023/04/06 02:53:18;;;;;;;4.85;1.30;;;21.70;99.90;;;;;;4994722;28;20283;-79
2023/04/06 02:55:49;;;;;;;3.85;1.50;;;21.70;99.90;;;;;;4997685;28;20196;-81
2023/04/06 02:58:20;;;;;;;2.30;1.33;;;21.70;99.90;;;;;;4997684;28;20187;-82
2023/04/06 03:00:51;;;;;;;3.38;1.42;;;21.70;99.90;;;;;;4991662;28;20655;-78
2023/04/06 03:03:22;;;;;;;3.35;1.20;;;21.70;99.90;;;;;;4997167;28;20235;-81
2023/04/06 03:05:54;;;;;;;4.22;1.10;;;21.60;99.90;;;;;;4997495;28;20198;-80
2023/04/06 03:08:27;;;;;;;3.10;1.00;;;21.60;99.90;;;;;;4997389;28;20281;-82
2023/04/06 03:10:58;;;;;;;2.65;1.10;;;21.60;99.90;;;;;;4997415;28;20555;-81
2023/04/06 03:13:29;;;;;;;4.10;1.77;;;21.50;99.90;;;;;;4997481;28;20210;-81
2023/04/06 03:16:00;;;;;;;2.28;1.00;;;21.60;99.90;;;;;;4997381;28;20196;-80
2023/04/06 03:18:31;;;;;;;2.35;1.10;;;21.60;99.90;;;;;;4997104;28;20252;-81
2023/04/06 03:21:03;;;;;;;2.97;1.00;;;21.60;99.90;;;;;;4992770;28;20212;-81
2023/04/06 03:23:36;;;;;;;4.00;1.00;;;21.60;99.90;;;;;;4993153;28;20558;-81
2023/04/06 03:26:07;;;;;;;4.53;1.20;;;21.70;99.90;;;;;;4995462;28;20210;-81
2023/04/06 03:28:38;;;;;;;2.47;1.00;;;21.80;99.90;;;;;;4993184;28;20265;-83
2023/04/06 03:31:09;;;;;;;1.75;0.90;;;21.80;99.90;;;;;;4983207;28;20204;-82
2023/04/06 03:33:40;;;;;;;2.20;0.80;;;21.80;99.90;;;;;;4981424;28;20192;-82
2023/04/06 03:36:12;;;;;;;4.72;1.00;;;21.80;99.90;;;;;;4993949;28;20199;-79
2023/04/06 03:38:45;;;;;;;4.10;0.85;;;21.80;99.90;;;;;;4984852;28;20191;-82
2023/04/06 03:41:16;;;;;;;3.92;0.93;;;21.90;99.90;;;;;;4996941;28;20202;-82
2023/04/06 03:43:47;;;;;;;2.25;0.65;;;22.00;99.90;;;;;;4996574;28;20195;-82
2023/04/06 03:46:18;;;;;;;1.55;0.82;;;21.90;99.90;;;;;;4996654;28;20218;-81
2023/04/06 03:48:51;;;;;;;2.85;0.70;;;22.00;99.90;;;;;;4995154;28;20239;-82
2023/04/06 03:51:22;;;;;;;2.40;0.80;;;21.90;99.90;;;;;;4977376;28;20192;-82
2023/04/06 03:53:55;;;;;;;3.30;0.90;;;21.90;99.90;;;;;;4977363;28;20640;-84
2023/04/06 03:56:26;;;;;;;2.90;0.70;;;21.90;99.90;;;;;;4987075;28;20204;-83
2023/04/06 03:58:57;;;;;;;1.67;0.70;;;21.90;99.90;;;;;;4988596;28;20196;-83
2023/04/06 04:01:28;;;;;;;3.05;0.60;;;21.90;99.90;;;;;;4996172;28;20210;-82
2023/04/06 04:03:59;;;;;;;4.00;0.70;;;21.90;99.90;;;;;;4996294;28;20261;-85
2023/04/06 04:06:31;;;;;;;1.42;0.60;;;21.90;99.90;;;;;;4996434;28;20191;-86
2023/04/06 04:09:04;;;;;;;2.50;0.60;;;21.80;99.90;;;;;;4995313;28;20247;-84
2023/04/06 04:11:35;;;;;;;4.10;0.70;;;21.80;99.90;;;;;;4987283;28;20191;-78
2023/04/06 04:14:06;;;;;;;1.75;0.60;;;21.70;99.90;;;;;;4995587;28;20223;-82
2023/04/06 04:16:39;;;;;;;3.78;1.05;;;21.70;99.90;;;;;;4994040;28;20651;-85
2023/04/06 04:19:10;;;;;;;2.35;0.55;;;21.70;99.90;;;;;;4996253;28;20211;-83
2023/04/06 04:21:48;;;;;;;2.60;0.63;;;21.70;99.90;;;;;;4992879;28;20238;-83
2023/04/06 04:24:21;;;;;;;3.13;0.65;;;21.60;99.90;;;;;;4976688;28;20193;-83
2023/04/06 04:26:52;;;;;;;1.55;0.50;;;21.60;99.90;;;;;;4984828;28;20188;-79
2023/04/06 04:29:23;;;;;;;2.45;0.70;;;21.60;99.90;;;;;;4995779;28;20223;-84
2023/04/06 04:31:55;;;;;;;1.73;0.60;;;21.60;99.90;;;;;;4992268;28;20291;-83
2023/04/06 04:34:26;;;;;;;0.98;0.60;;;21.60;99.90;;;;;;4976534;28;20188;-84
2023/04/06 04:36:57;;;;;;;2.47;0.60;;;21.60;99.90;;;;;;4976389;28;20192;-84
2023/04/06 04:39:30;;;;;;;3.63;0.70;;;21.70;99.90;;;;;;4988074;28;20227;-82
2023/04/06 04:42:02;;;;;;;4.78;0.98;;;21.70;99.90;;;;;;4995719;28;20227;-84
2023/04/06 04:44:33;;;;;;;1.55;0.70;;;21.80;99.90;;;;;;4995473;28;20199;-84
2023/04/06 04:47:04;;;;;;;1.30;0.40;;;21.80;99.90;;;;;;4995512;28;20191;-84
2023/04/06 04:49:35;;;;;;;3.58;0.80;;;21.80;99.90;;;;;;4986326;28;20323;-82
2023/04/06 04:52:06;;;;;;;2.25;0.90;;;21.90;99.90;;;;;;4994765;28;20203;-83
2023/04/06 04:54:40;;;;;;;1.65;0.55;;;21.90;99.90;;;;;;4990594;28;20227;-82
2023/04/06 04:57:12;;;;;;;1.85;0.50;;;21.90;99.90;;;;;;4983242;28;20201;-82
2023/04/06 04:59:43;;;;;;;3.60;0.82;;;21.90;99.90;;;;;;4980711;28;20290;-78
2023/04/06 05:02:14;;;;;;;2.40;0.75;;;21.90;99.90;;;;;;4992059;28;20565;-83
2023/04/06 05:04:45;;;;;;;3.40;0.80;;;21.80;99.90;;;;;;4990526;28;20223;-79
2023/04/06 05:07:18;;;;;;;2.15;0.73;;;21.80;99.90;;;;;;4990838;28;20234;-83
2023/04/06 05:09:51;;;;;;;2.85;0.73;;;21.80;99.90;;;;;;4992596;28;20200;-78
2023/04/06 05:12:23;;;;;;;2.35;0.50;;;21.80;99.90;;;;;;4989963;28;20206;-78
2023/04/06 05:14:54;;;;;;;2.88;0.77;;;21.80;99.90;;;;;;4989622;28;20195;-82
2023/04/06 05:17:25;;;;;;;2.38;0.75;;;21.70;99.90;;;;;;4977543;28;20297;-83
2023/04/06 05:19:57;;;;;;;2.35;0.80;;;21.70;99.90;;;;;;4990926;28;20632;-85
2023/04/06 05:22:28;;;;;;;1.42;0.73;;;21.80;99.90;;;;;;4988592;28;20633;-85
2023/04/06 05:25:01;;;;;;;4.07;0.80;;;21.80;99.90;;;;;;4979648;28;20293;-86
2023/04/06 05:27:32;;;;;;;1.83;0.77;;;21.80;99.90;;;;;;4994107;28;20774;-85
2023/04/06 05:30:03;;;;;;;1.88;0.90;;;21.90;99.90;;;;;;4988081;28;21526;-82
2023/04/06 05:32:35;;;;;;;3.80;0.88;;;21.90;99.90;;;;;;4993153;28;20274;-83
2023/04/06 05:35:06;;;;;;;2.20;0.80;;;21.90;99.90;;;;;;4994603;28;20234;-83
2023/04/06 05:37:37;;;;;;;3.47;0.90;;;21.90;99.90;;;;;;4991876;28;20266;-84
2023/04/06 05:40:11;;;;;;;1.92;0.80;;;21.80;99.90;;;;;;4989795;28;20238;-81
2023/04/06 05:42:43;;;;;;;1.45;0.65;;;21.80;99.90;;;;;;4991336;28;20195;-81
2023/04/06 05:45:16;;;;;;;1.83;0.73;;;21.80;99.90;;;;;;4993040;28;20195;-83
2023/04/06 05:47:47;;;;;;;4.00;0.80;;;21.70;99.90;;;;;;4992326;28;20323;-84
2023/04/06 05:50:19;;;;;;;4.65;0.80;;;21.70;99.90;;;;;;4992142;28;20209;-83
2023/04/06 05:52:50;;;;;;;1.45;0.60;;;21.70;99.90;;;;;;4992245;28;20195;-80
2023/04/06 05:55:23;;;;;;;2.83;0.70;;;21.70;99.90;;;;;;4982731;28;20202;-84
2023/04/06 05:57:54;;;;;;;0.82;0.60;;;21.70;99.90;;;;;;4994129;28;20195;-83
2023/04/06 06:00:26;;;;;;;1.67;0.80;;;21.70;99.90;;;;;;4992623;28;20195;-85
2023/04/06 06:02:57;;;;;;;4.03;0.70;;;21.70;99.90;;;;;;4987796;28;20242;-83
2023/04/06 06:05:28;;;;;;;3.58;0.70;;;21.60;99.90;;;;;;4994371;28;20232;-85
2023/04/06 06:08:01;;;;;;;2.33;0.75;;;21.60;99.90;;;;;;4988228;28;20207;-84
2023/04/06 06:10:34;;;;;;;2.58;0.70;;;21.60;99.90;;;;;;4974961;28;20192;-83
2023/04/06 06:13:06;;;;;;;1.33;0.60;;;21.60;99.90;;;;;;4975231;28;20204;-85
2023/04/06 06:15:37;;;;;;;1.63;0.50;;;21.60;99.90;;;;;;4974786;28;20199;-86
2023/04/06 06:18:08;;;;;;;2.55;0.90;;;21.60;99.90;;;;;;4986662;28;20579;-82
2023/04/06 06:20:39;;;;;;;2.60;0.90;;;21.60;99.90;;;;;;4994030;28;20278;-79
2023/04/06 06:23:10;;;;;;;3.45;0.90;;;21.50;99.90;;;;;;4993378;28;20249;-84
2023/04/06 06:25:44;;;;;;;3.75;0.70;;;21.60;99.90;;;;;;4980225;28;20199;-80
2023/04/06 06:28:15;;;;;;;1.75;0.43;;;21.50;99.90;;;;;;4991993;28;20730;-86
2023/04/06 06:30:46;;;;;;;2.05;0.60;;;21.50;99.90;;;;;;4993263;28;20215;-81
2023/04/06 06:33:17;;;;;;;1.50;0.70;;;21.50;99.90;;;;;;4984408;28;20275;-82
2023/04/06 06:35:48;;;;;;;5.53;0.80;;;21.50;99.90;;;;;;4994036;28;20230;-82
2023/04/06 06:38:20;;;;;;;2.15;0.60;;;21.50;99.90;;;;;;4993926;28;20541;-83
2023/04/06 06:40:53;;;;;;;3.63;0.82;;;21.40;99.90;;;;;;4993065;28;20196;-84
2023/04/06 06:43:24;;;;;;;3.85;0.80;;;21.40;99.90;;;;;;4990740;28;20228;-79
2023/04/06 06:45:55;;;;;;;4.85;0.73;;;21.40;99.90;;;;;;4974473;28;20223;-80
2023/04/06 06:48:26;;;;;;;2.38;0.60;;;21.40;99.90;;;;;;4974757;28;20294;-83
2023/04/06 06:50:58;;;;;;;2.60;0.60;;;21.30;99.90;;;;;;4980368;28;20234;-79
2023/04/06 06:53:29;;;;;;;2.30;0.60;;;21.30;99.90;;;;;;4983935;28;20275;-83
2023/04/06 06:56:02;;;;;;;3.53;1.00;;;21.30;99.90;;;;;;4975009;28;20192;-78
2023/04/06 06:58:33;;;;;;;5.43;1.20;;;21.20;99.90;;;;;;4984202;28;20199;-80
2023/04/06 07:01:04;;;;;;;4.65;0.90;;;21.20;99.90;;;;;;4987546;28;20651;-83
2023/04/06 07:03:36;;;;;;;1.80;0.80;;;21.20;99.90;;;;;;4990096;28;20236;-82
2023/04/06 07:06:07;;;;;;;2.33;0.70;;;21.10;99.90;;;;;;4979621;28;20287;-82
2023/04/06 07:08:38;;;;;;;3.17;0.80;;;21.10;99.90;;;;;;4975840;28;20274;-80
2023/04/06 07:11:11;;;;;;;2.08;0.68;;;21.10;99.90;;;;;;4974149;28;20224;-85
2023/04/06 07:13:42;;;;;;;3.67;0.95;;;21.00;99.90;;;;;;4988151;28;20735;-85
2023/04/06 07:16:14;;;;;;;3.60;0.82;;;21.00;99.90;;;;;;4981988;28;20294;-85
2023/04/06 07:18:45;;;;;;;3.85;0.80;;;21.00;99.90;;;;;;4984178;28;20298;-83
2023/04/06 07:21:16;;;;;;;4.03;0.98;;;20.90;99.90;;;;;;4992624;28;20231;-83
2023/04/06 07:23:47;;;;;;;3.70;0.95;;;20.90;99.90;;;;;;4993102;28;20250;-77
2023/04/06 07:26:21;;;;;;;3.80;0.90;;;20.90;99.90;;;;;;4990632;28;20203;-83
2023/04/06 07:28:52;;;;;;;3.00;0.80;;;20.80;99.90;;;;;;4983107;28;20224;-78
2023/04/06 07:31:23;;;;;;;2.35;0.90;;;20.80;99.90;;;;;;4985326;28;20234;-80
2023/04/06 07:33:54;;;;;;;2.38;0.85;;;20.80;99.90;;;;;;4989003;28;20269;-82
2023/04/06 07:36:25;;;;;;;4.13;0.85;;;20.70;99.90;;;;;;4976764;28;20215;-81
2023/04/06 07:38:56;;;;;;;2.78;0.88;;;20.70;99.90;;;;;;4992992;28;20286;-83
2023/04/06 07:41:30;;;;;;;4.97;0.73;;;20.70;99.90;;;;;;4987943;28;20210;-79
2023/04/06 07:44:01;;;;;;;3.63;0.85;;;20.70;99.90;;;;;;4991790;28;20227;-77
2023/04/06 07:46:32;;;;;;;3.65;0.70;;;20.60;99.90;;;;;;4996444;28;20191;-78
2023/04/06 07:49:04;;;;;;;1.63;0.60;;;20.60;99.90;;;;;;4995323;28;20279;-78
2023/04/06 07:51:35;;;;;;;2.72;0.80;;;20.60;99.90;;;;;;4995779;28;20242;-81
2023/04/06 07:54:07;;;;;;;2.92;0.93;;;20.50;99.90;;;;;;4997087;28;20271;-81
2023/04/06 07:56:40;;;;;;;2.97;0.80;;;20.50;99.90;;;;;;4992877;28;20239;-82
2023/04/06 07:59:11;;;;;;;3.67;0.90;;;20.40;99.90;;;;;;4992958;28;20204;-83
2023/04/06 08:01:42;;;;;;;2.83;1.00;;;20.40;99.90;;;;;;4996034;28;20222;-83
2023/04/06 08:04:13;;;;;;;4.70;0.70;;;20.30;99.90;;;;;;4993885;28;20274;-82
2023/04/06 08:06:45;;;;;;;2.40;0.70;;;20.20;99.90;;;;;;4989588;28;20291;-82
2023/04/06 08:09:16;;;;;;;4.97;0.90;;;20.20;99.90;;;;;;4992053;28;20306;-82
2023/04/06 08:11:49;;;;;;;5.50;1.10;;;20.10;99.90;;;;;;4995009;28;20234;-81
2023/04/06 08:14:20;;;;;;;5.90;1.10;;;20.00;99.90;;;;;;4993652;28;20204;-81
2023/04/06 08:16:51;;;;;;;3.55;1.10;;;19.90;99.90;;;;;;4988261;28;20197;-83
2023/04/06 08:19:23;;;;;;;2.90;0.93;;;19.80;99.90;;;;;;4992562;28;20246;-80
2023/04/06 08:21:54;;;;;;;2.28;0.80;;;19.80;99.90;;;;;;4992825;28;20227;-78
2023/04/06 08:24:25;;;;;;;1.73;0.80;;;19.70;99.90;;;;;;4992986;28;20200;-82
2023/04/06 08:26:58;;;;;;;3.67;0.90;;;19.70;99.90;;;;;;4990950;28;20234;-83
2023/04/06 08:29:30;;;;;;;2.88;0.93;;;19.70;99.90;;;;;;4990467;28;20270;-79
2023/04/06 08:32:04;;;;;;;4.53;1.08;;;19.60;99.90;;;;;;4994591;28;20227;-82
2023/04/06 08:34:37;;;;;;;4.05;1.08;;;19.60;99.90;;;;;;4993059;28;20257;-82
2023/04/06 08:37:09;;;;;;;3.58;1.08;;;19.50;99.90;;;;;;4992533;28;20314;-81
2023/04/06 08:39:40;;;;;;;4.70;1.10;;;19.50;99.90;;;;;;4991092;28;20200;-82
2023/04/06 08:42:22;;;;;;;2.33;1.00;;;19.40;99.90;;;;;;4995084;28;20199;-79
2023/04/06 08:44:54;;;;;;;2.95;1.20;;;19.50;99.90;;;;;;4983373;28;20195;-81
2023/04/06 08:47:26;;;;;;;3.22;1.17;;;19.40;99.90;;;;;;4991610;28;20637;-83
2023/04/06 08:49:58;;;;;;;4.05;1.10;;;19.30;99.90;;;;;;4991071;28;20223;-81
2023/04/06 08:52:30;;;;;;;5.97;1.15;;;19.30;99.90;;;;;;4985997;28;20199;-79
2023/04/06 08:55:01;;;;;;;4.13;1.40;;;19.30;99.90;;;;;;4988916;28;20209;-82
2023/04/06 08:57:35;;;;;;;5.88;1.30;;;19.30;99.90;;;;;;4993710;28;20192;-84
2023/04/06 09:00:09;;;;;;;3.28;1.20;;;19.20;99.90;;;;;;4991711;28;20667;-81
2023/04/06 09:02:42;;;;;;;5.00;1.42;;;19.20;99.90;;;;;;4982285;28;20234;-83
2023/04/06 09:05:14;;;;;;;3.35;1.27;;;19.20;99.90;;;;;;4981086;28;20212;-80
2023/04/06 09:07:47;;;;;;;6.20;1.33;;;19.20;99.90;;;;;;4987897;28;20230;-81
2023/04/06 09:10:20;;;;;;;4.47;1.27;;;19.20;99.90;;;;;;4988591;28;20297;-84
2023/04/06 09:12:53;;;;;;;4.22;1.33;;;19.20;99.90;;;;;;4992722;28;20196;-83
2023/04/06 09:15:25;;;;;;;4.75;1.70;;;19.10;99.90;;;;;;4981673;28;20199;-84
2023/04/06 09:17:56;;;;;;;6.93;2.03;;;19.10;99.90;;;;;;4992404;28;20282;-81
2023/04/06 09:20:28;;;;;;;3.72;1.63;;;19.00;99.90;;;;;;4992728;28;20206;-82
2023/04/06 09:22:59;;;;;;;3.13;1.60;;;19.00;99.90;;;;;;4990792;28;20203;-79
2023/04/06 09:25:32;;;;;;;3.90;1.70;;;19.00;99.90;;;;;;4994214;28;20623;-81
2023/04/06 09:28:06;;;;;;;6.45;2.10;;;19.00;99.90;;;;;;4990339;28;20195;-84
2023/04/06 09:30:38;;;;;;;3.33;1.77;;;19.00;99.90;;;;;;4986229;28;20233;-82
2023/04/06 09:33:09;;;;;;;5.18;2.20;;;19.00;99.90;;;;;;4990968;28;20231;-79
2023/04/06 09:35:40;;;;;;;5.32;2.40;;;18.90;99.90;;;;;;4985541;28;20231;-80
2023/04/06 09:38:15;;;;;;;5.15;2.15;;;19.00;99.90;;;;;;4992171;28;20286;-78
2023/04/06 09:40:54;;;;;;;4.68;2.15;;;18.90;99.90;;;;;;4994411;28;20205;-78
2023/04/06 09:43:33;;;;;;;7.45;2.60;;;18.90;99.90;;;;;;4990404;28;20808;-82
2023/04/06 09:46:06;;;;;;;7.03;2.35;;;18.80;99.90;;;;;;4989338;28;20698;-78
2023/04/06 09:48:39;;;;;;;5.13;2.00;;;18.80;99.90;;;;;;4989341;28;20229;-78
2023/04/06 09:51:14;;;;;;;7.55;2.30;;;18.70;99.90;;;;;;4982689;28;20219;-82
2023/04/06 09:53:47;;;;;;;6.93;1.90;;;18.70;99.90;;;;;;4987645;28;20662;-79
2023/04/06 09:56:23;;;;;;;4.55;1.90;;;18.70;99.90;;;;;;4984606;28;20200;-82
2023/04/06 09:58:59;;;;;;;4.85;1.98;;;18.60;99.90;;;;;;4989222;28;20314;-79
2023/04/06 10:01:34;;;;;;;4.53;2.20;;;18.60;99.90;;;;;;4991436;28;20667;-79
2023/04/06 10:04:22;;;;;;;4.10;2.03;;;18.60;99.90;;;;;;4985084;28;20230;-81
2023/04/06 10:06:54;;;;;;;5.28;2.22;;;18.60;99.90;;;;;;4991749;28;20718;-78
2023/04/06 10:09:28;;;;;;;4.05;2.03;;;18.60;99.90;;;;;;4992609;28;20281;-83
2023/04/06 10:12:00;;;;;;;5.72;2.20;;;18.60;99.90;;;;;;4992205;28;20234;-83
2023/04/06 10:14:36;;;;;;;4.85;2.20;;;18.50;99.90;;;;;;4988169;28;20207;-82
2023/04/06 10:17:08;;;;;;;6.00;2.20;;;18.50;99.90;;;;;;4984512;28;20198;-79
2023/04/06 10:19:55;;;;;;;4.93;2.15;;;18.50;99.90;;;;;;4991357;28;20208;-79
2023/04/06 10:22:35;;;;;;;4.55;2.15;;;18.50;99.90;;;;;;4983015;28;20639;-78
2023/04/06 10:25:06;;;;;;;3.75;2.08;;;18.50;99.90;;;;;;4991954;28;20199;-79
2023/04/06 10:27:38;;;;;;;5.45;2.00;;;18.50;99.90;;;;;;4989153;28;20196;-83
2023/04/06 10:30:11;;;;;;;4.72;2.05;;;18.40;99.90;;;;;;4988970;28;20226;-81
2023/04/06 10:32:43;;;;;;;5.90;2.03;;;18.40;99.90;;;;;;4990350;28;20234;-83
2023/04/06 10:35:18;;;;;;;4.80;1.90;;;18.40;99.90;;;;;;4992736;28;20200;-80
2023/04/06 10:38:03;;;;;;;5.30;1.98;;;18.50;99.90;;;;;;4984438;28;20195;-79
2023/04/06 10:40:34;;;;;;;6.22;2.42;;;18.40;99.90;;;;;;4989231;28;20537;-80
2023/04/06 10:43:12;;;;;;;5.00;2.50;;;18.40;99.90;;;;;;4973798;28;20299;-80
2023/04/06 10:45:45;;;;;;;6.43;2.63;;;18.40;99.90;;;;;;4987577;28;20199;-80
2023/04/06 10:48:20;;;;;;;6.25;2.30;;;18.40;99.90;;;;;;4993574;28;20227;-78
2023/04/06 10:50:53;;;;;;;8.88;2.95;;;18.30;99.90;;;;;;4993402;28;20578;-79
2023/04/06 10:53:29;;;;;;;6.03;2.50;;;18.30;99.90;;;;;;4983282;28;20236;-79
2023/04/06 10:56:00;;;;;;;4.75;2.35;;;18.30;99.90;;;;;;4990128;28;20203;-83
2023/04/06 10:58:32;;;;;;;5.40;2.60;;;18.30;99.90;;;;;;4993498;28;20238;-82
2023/04/06 11:01:05;;;;;;;7.70;2.95;;;18.30;99.90;;;;;;4989790;28;20207;-79
2023/04/06 11:03:47;;;;;;;5.40;2.60;;;18.30;99.90;;;;;;4982555;28;20235;-81
2023/04/06 11:06:28;;;;;;;6.35;2.50;;;18.20;99.90;;;;;;4992355;28;20203;-82
2023/04/06 11:09:00;;;;;;;6.93;2.70;;;18.20;99.90;;;;;;4988238;28;20207;-79
2023/04/06 11:11:31;;;;;;;7.28;2.50;;;18.20;99.90;;;;;;4990449;28;20653;-80
2023/04/06 11:14:03;;;;;;;5.38;2.47;;;18.20;99.90;;;;;;4991183;28;20652;-77
2023/04/06 11:16:36;;;;;;;6.50;2.80;;;18.20;99.90;;;;;;4989983;28;20207;-79
2023/04/06 11:19:09;;;;;;;7.05;2.40;;;18.10;99.90;;;;;;4986931;28;20231;-80
2023/04/06 11:21:43;;;;;;;4.90;2.58;;;18.10;99.90;;;;;;4994009;28;20199;-83
2023/04/06 11:24:15;;;;;;;6.03;2.38;;;18.10;99.90;;;;;;4995117;28;20246;-84
2023/04/06 11:26:48;;;;;;;6.47;2.28;;;18.00;99.90;;;;;;4995195;28;20195;-79
2023/04/06 11:29:24;;;;;;;7.18;2.70;;;18.00;99.90;;;;;;4987552;28;20235;-83
2023/04/06 11:32:00;;;;;;;6.68;2.42;;;18.00;99.90;;;;;;4994045;28;20203;-82
2023/04/06 11:34:33;;;;;;;5.13;2.15;;;17.90;99.90;;;;;;4993276;28;20203;-82
2023/04/06 11:37:05;;;;;;;6.50;2.38;;;17.90;99.90;;;;;;4993488;28;20196;-83
2023/04/06 11:39:42;;;;;;;4.72;2.15;;;17.90;99.90;;;;;;4994017;28;20192;-78
2023/04/06 11:42:13;;;;;;;5.25;2.00;;;17.90;99.90;;;;;;4995390;28;20202;-82
2023/04/06 11:44:48;;;;;;;6.95;2.30;;;17.90;99.90;;;;;;4994804;28;20577;-78
2023/04/06 11:47:22;;;;;;;6.20;2.58;;;17.90;99.90;;;;;;4985916;28;20568;-82
2023/04/06 11:49:53;;;;;;;7.25;2.50;;;17.90;99.90;;;;;;4994817;28;20301;-79
2023/04/06 11:52:27;;;;;;;6.57;2.70;;;17.90;99.90;;;;;;4986461;28;20287;-81
2023/04/06 11:54:58;;;;;;;6.10;2.72;;;17.90;99.90;;;;;;4992670;28;20558;-79
2023/04/06 11:57:30;;;;;;;5.68;2.90;;;17.90;99.90;;;;;;4992193;28;20584;-78
2023/04/06 12:00:01;;;;;;;6.20;2.60;;;17.80;99.90;;;;;;4987799;28;20202;-78
2023/04/06 12:02:34;;;;;;;7.68;2.70;;;17.90;99.90;;;;;;4990008;28;20271;-78
2023/04/06 12:05:05;;;;;;;7.07;2.75;;;17.80;99.90;;;;;;4975210;28;20200;-80
2023/04/06 12:07:37;;;;;;;6.38;2.85;;;17.80;99.90;;;;;;4965879;28;20200;-78
2023/04/06 12:10:08;;;;;;;5.53;2.60;;;17.80;99.90;;;;;;4975083;28;20223;-79
2023/04/06 12:12:39;;;;;;;6.32;2.85;;;17.80;99.90;;;;;;4971920;28;20291;-81
2023/04/06 12:15:11;;;;;;;4.95;2.42;;;17.80;99.90;;;;;;4957347;28;20701;-82
2023/04/06 12:17:45;;;;;;;5.05;2.20;;;17.80;99.90;;;;;;4962382;28;20532;-83
2023/04/06 12:20:16;;;;;;;7.63;2.60;;;17.80;99.90;;;;;;4974833;28;20200;-80
2023/04/06 12:22:47;;;;;;;7.63;2.67;;;17.80;99.90;;;;;;4971540;28;20244;-78
2023/04/06 12:25:19;;;;;;;4.53;2.40;;;17.80;99.90;;;;;;4956533;28;20236;-81
2023/04/06 12:27:50;;;;;;;4.72;2.38;;;17.80;99.90;;;;;;4969558;28;20232;-82
2023/04/06 12:30:21;;;;;;;6.72;2.90;;;17.70;99.90;;;;;;4957299;29;20305;-83
2023/04/06 12:32:54;;;;;;;4.75;2.72;;;17.70;99.90;;;;;;4965905;28;20208;-84
2023/04/06 12:35:25;;;;;;;6.47;2.58;;;17.70;99.90;;;;;;4976299;28;20203;-80
2023/04/06 12:37:57;;;;;;;6.53;2.60;;;17.70;99.90;;;;;;4972268;28;20200;-80
2023/04/06 12:40:28;;;;;;;9.55;2.90;;;17.70;99.90;;;;;;4972821;28;20260;-81
2023/04/06 12:42:59;;;;;;;7.65;2.83;;;17.70;99.90;;;;;;4974677;28;20198;-83
2023/04/06 12:45:30;;;;;;;8.00;2.70;;;17.60;99.90;;;;;;4974899;28;20196;-83
2023/04/06 12:48:03;;;;;;;7.60;2.45;;;17.60;99.90;;;;;;4975258;28;20659;-82
2023/04/06 12:50:34;;;;;;;6.93;2.65;;;17.60;99.90;;;;;;4974317;28;20219;-82
2023/04/06 12:53:06;;;;;;;6.90;3.08;;;17.50;99.90;;;;;;4973437;28;20200;-82
2023/04/06 12:55:37;;;;;;;12.05;2.60;;;17.50;99.90;;;;;;4974226;28;20224;-82
2023/04/06 12:58:08;;;;;;;6.10;2.20;;;17.50;99.90;;;;;;4973828;28;20228;-83
2023/04/06 13:00:39;;;;;;;5.18;2.05;;;17.50;99.90;;;;;;4971581;28;20207;-82
2023/04/06 13:03:12;;;;;;;5.75;2.00;;;17.50;99.90;;;;;;4984817;28;20247;-83
2023/04/06 13:05:48;;;;;;;5.30;2.30;;;17.50;99.90;;;;;;4994025;28;20287;-83
2023/04/06 13:08:20;;;;;;;6.47;2.30;;;17.50;99.90;;;;;;4990400;28;20659;-82
2023/04/06 13:10:52;;;;;;;4.88;2.00;;;17.50;99.90;;;;;;4983504;28;20248;-82
2023/04/06 13:13:26;;;;;;;4.95;2.30;;;17.50;99.90;;;;;;4993636;28;20214;-81